createdAt,value
2023-12-21T00:01:55.116Z,0.40
2023-12-21T00:06:47.227Z,1.13
2023-12-21T00:11:39.692Z,0.87
2023-12-21T00:16:31.875Z,1.27
2023-12-21T00:21:24.123Z,2.00
2023-12-21T00:26:16.241Z,0.87
2023-12-21T00:31:08.469Z,0.53
2023-12-21T00:36:00.655Z,0.87
2023-12-21T00:40:54.006Z,1.23
2023-12-21T00:45:46.192Z,0.87
2023-12-21T00:50:38.201Z,0.20
2023-12-21T00:55:30.314Z,0.90
2023-12-21T01:00:22.474Z,1.70
2023-12-21T01:05:14.547Z,0.20
2023-12-21T01:10:07.838Z,2.53
2023-12-21T01:15:01.661Z,0.50
2023-12-21T01:19:53.997Z,0.20
2023-12-21T01:24:46.141Z,1.03
2023-12-21T01:29:38.315Z,1.17
2023-12-21T01:34:30.595Z,0.57
2023-12-21T01:39:22.933Z,0.87
2023-12-21T01:44:15.689Z,0.40
2023-12-21T01:49:08.054Z,0.50
2023-12-21T01:54:04.375Z,1.90
2023-12-21T01:58:57.428Z,0.00
2023-12-21T02:03:49.811Z,0.23
2023-12-21T02:08:42.100Z,0.10
2023-12-21T02:13:34.301Z,0.37
2023-12-21T02:18:26.754Z,0.20
2023-12-21T02:23:20.977Z,0.30
2023-12-21T02:28:12.986Z,0.10
2023-12-21T02:33:05.373Z,0.20
2023-12-21T02:37:57.548Z,1.30
2023-12-21T02:42:49.902Z,1.50
2023-12-21T02:47:42.137Z,0.80
2023-12-21T02:52:34.331Z,0.10
2023-12-21T02:57:26.399Z,0.33
2023-12-21T03:02:18.582Z,2.67
2023-12-21T03:07:10.768Z,0.10
2023-12-21T03:12:04.587Z,0.00
2023-12-21T03:16:56.606Z,1.07
2023-12-21T03:21:48.860Z,0.10
2023-12-21T03:26:41.017Z,0.10
2023-12-21T03:31:33.183Z,0.10
2023-12-21T03:36:26.123Z,0.10
2023-12-21T03:41:18.145Z,1.23
2023-12-21T03:46:10.940Z,0.00
2023-12-21T03:51:03.057Z,0.00
2023-12-21T03:55:55.174Z,0.47
2023-12-21T04:00:47.466Z,0.00
2023-12-21T04:05:40.053Z,0.57
2023-12-21T04:10:32.211Z,0.63
2023-12-21T04:15:24.612Z,0.67
2023-12-21T04:20:17.833Z,0.20
2023-12-21T04:25:10.308Z,0.00
2023-12-21T04:30:04.221Z,0.73
2023-12-21T04:34:56.523Z,0.07
2023-12-21T04:39:48.892Z,0.10
2023-12-21T04:44:40.977Z,0.50
2023-12-21T04:49:34.122Z,0.20
2023-12-21T04:54:26.168Z,0.10
2023-12-21T04:59:18.341Z,0.00
2023-12-21T05:04:11.508Z,0.00
2023-12-21T05:09:04.882Z,0.57
2023-12-21T05:13:56.903Z,0.20
2023-12-21T05:18:50.791Z,2.07
2023-12-21T05:23:42.897Z,0.07
2023-12-21T05:28:35.015Z,0.20
2023-12-21T05:33:27.106Z,2.00
2023-12-21T05:38:19.192Z,0.63
2023-12-21T05:43:11.263Z,0.00
2023-12-21T05:48:03.576Z,0.20
2023-12-21T05:52:56.117Z,0.00
2023-12-21T05:57:48.188Z,0.10
2023-12-21T06:02:40.220Z,0.10
2023-12-21T06:07:32.440Z,0.03
2023-12-21T06:12:24.521Z,0.17
2023-12-21T06:17:16.512Z,0.10
2023-12-21T06:22:08.565Z,0.30
2023-12-21T06:27:00.676Z,0.00
2023-12-21T06:31:54.163Z,0.10
2023-12-21T06:36:48.154Z,0.30
2023-12-21T06:41:40.213Z,0.43
2023-12-21T06:46:32.425Z,0.00
2023-12-21T06:51:24.752Z,2.13
2023-12-21T06:56:28.955Z,0.00
2023-12-21T07:01:27.788Z,0.10
2023-12-21T07:06:20.227Z,0.10
2023-12-21T07:11:12.409Z,0.17
2023-12-21T07:16:04.848Z,0.30
2023-12-21T07:20:56.947Z,0.10
2023-12-21T07:25:49.062Z,0.33
2023-12-21T07:30:41.349Z,0.20
2023-12-21T07:35:33.416Z,0.00
2023-12-21T07:40:25.711Z,0.10
2023-12-21T07:45:18.028Z,1.83
2023-12-21T07:50:10.431Z,0.10
2023-12-21T07:55:03.022Z,0.10
2023-12-21T07:59:55.140Z,0.10
2023-12-21T08:04:47.339Z,0.20
2023-12-21T08:09:39.649Z,0.23
2023-12-21T08:14:36.495Z,0.37
2023-12-21T08:19:28.706Z,0.10
2023-12-21T08:24:20.785Z,0.47
2023-12-21T08:29:13.134Z,0.57
2023-12-21T08:34:05.525Z,0.43
2023-12-21T08:38:58.361Z,0.73
2023-12-21T08:43:50.578Z,0.10
2023-12-21T08:48:42.729Z,0.07
2023-12-21T08:53:35.263Z,0.10
2023-12-21T08:58:27.448Z,0.20
2023-12-21T09:03:20.518Z,0.83
2023-12-21T09:08:12.732Z,0.70
2023-12-21T09:13:04.983Z,0.20
2023-12-21T09:17:57.279Z,1.37
2023-12-21T09:22:50.659Z,0.20
2023-12-21T09:27:42.890Z,1.07
2023-12-21T09:32:35.035Z,0.10
2023-12-21T09:37:27.105Z,0.97
2023-12-21T09:42:20.379Z,0.10
2023-12-21T09:47:14.885Z,0.07
2023-12-21T09:52:08.881Z,0.10
2023-12-21T09:57:01.656Z,2.57
2023-12-21T10:01:54.377Z,0.20
2023-12-21T10:06:46.572Z,0.70
2023-12-21T10:11:38.574Z,0.10
2023-12-21T10:16:30.709Z,1.13
2023-12-21T10:21:23.953Z,0.03
2023-12-21T10:26:16.032Z,0.10
2023-12-21T10:31:11.990Z,0.30
2023-12-21T10:36:04.759Z,0.70
2023-12-21T10:40:59.666Z,0.23
2023-12-21T10:45:52.382Z,0.00
2023-12-21T10:50:50.736Z,0.10
2023-12-21T10:55:46.432Z,1.47
2023-12-21T11:00:40.077Z,0.47
2023-12-21T11:05:35.097Z,0.23
2023-12-21T11:10:27.521Z,0.87
2023-12-21T11:15:21.397Z,0.10
2023-12-21T11:20:19.494Z,0.20
2023-12-21T11:25:14.874Z,0.20
2023-12-21T11:30:14.235Z,0.10
2023-12-21T11:35:24.196Z,0.67
2023-12-21T11:40:18.773Z,2.20
2023-12-21T11:45:11.364Z,0.20
2023-12-21T11:50:11.286Z,2.10
2023-12-21T11:55:03.869Z,0.10
2023-12-21T12:00:17.567Z,0.73
2023-12-21T12:05:10.027Z,0.10
2023-12-21T12:10:02.643Z,0.30
2023-12-21T12:14:54.952Z,0.10
2023-12-21T12:19:47.198Z,0.10
2023-12-21T12:24:41.007Z,0.00
2023-12-21T12:29:33.132Z,0.20
2023-12-21T12:34:25.858Z,0.20
2023-12-21T12:39:17.955Z,0.13
2023-12-21T12:44:10.304Z,0.30
2023-12-21T12:49:02.654Z,0.10
2023-12-21T12:53:54.759Z,0.20
2023-12-21T13:03:41.944Z,0.10
2023-12-21T13:08:35.638Z,0.10
2023-12-21T13:13:28.515Z,0.17
2023-12-21T13:18:20.876Z,0.07
2023-12-21T13:23:14.681Z,2.17
2023-12-21T13:28:14.791Z,0.27
2023-12-21T13:33:11.992Z,0.13
2023-12-21T13:38:04.399Z,0.00
2023-12-21T13:42:56.632Z,0.10
2023-12-21T13:47:48.769Z,0.30
2023-12-21T13:52:40.961Z,0.30
2023-12-21T13:57:33.209Z,0.10
2023-12-21T14:02:25.385Z,0.10
2023-12-21T14:07:17.953Z,0.00
2023-12-21T14:12:10.448Z,0.73
2023-12-21T14:17:02.862Z,0.73
2023-12-21T14:21:55.032Z,0.20
2023-12-21T14:26:47.179Z,1.13
2023-12-21T14:31:41.685Z,0.60
2023-12-21T14:36:33.865Z,0.53
2023-12-21T14:41:25.961Z,0.20
2023-12-21T14:46:18.062Z,0.10
2023-12-21T14:51:12.216Z,1.03
2023-12-21T14:56:04.850Z,1.30
2023-12-21T15:00:56.994Z,0.17
2023-12-21T15:05:49.686Z,0.40
2023-12-21T15:10:42.124Z,0.20
2023-12-21T15:15:34.362Z,1.70
2023-12-21T15:20:26.541Z,1.07
2023-12-21T15:25:18.613Z,0.50
2023-12-21T15:30:11.741Z,0.10
2023-12-21T15:35:04.349Z,0.20
2023-12-21T15:39:56.949Z,0.47
2023-12-21T15:44:50.369Z,0.10
2023-12-21T15:49:42.707Z,0.30
2023-12-21T15:54:34.878Z,0.30
2023-12-21T15:59:26.939Z,0.30
2023-12-21T16:04:19.066Z,0.20
2023-12-21T16:09:11.223Z,2.10
2023-12-21T16:14:03.351Z,0.40
2023-12-21T16:18:55.478Z,1.00
2023-12-21T16:23:48.774Z,0.10
2023-12-21T16:28:42.507Z,3.07
2023-12-21T16:33:35.235Z,0.50
2023-12-21T16:38:32.788Z,0.20
2023-12-21T16:43:27.719Z,1.20
2023-12-21T16:48:20.031Z,0.77
2023-12-21T16:53:12.373Z,1.37
2023-12-21T16:58:08.024Z,0.80
2023-12-21T17:03:00.439Z,1.23
2023-12-21T17:07:52.756Z,0.70
2023-12-21T17:12:45.084Z,1.90
2023-12-21T17:17:37.409Z,2.80
2023-12-21T17:22:29.435Z,0.67
2023-12-21T17:27:21.643Z,1.57
2023-12-21T17:32:14.201Z,2.53
2023-12-21T17:37:06.359Z,0.70
2023-12-21T17:41:58.511Z,4.20
2023-12-21T17:46:50.531Z,0.97
2023-12-21T17:51:42.657Z,1.33
2023-12-21T17:56:36.095Z,0.30
2023-12-21T18:01:28.358Z,3.20
2023-12-21T18:06:20.563Z,1.00
2023-12-21T18:11:12.740Z,1.30
2023-12-21T18:16:05.000Z,1.23
2023-12-21T18:20:58.293Z,0.80
2023-12-21T18:25:50.494Z,1.23
2023-12-21T18:30:43.749Z,0.83
2023-12-21T18:35:38.726Z,1.47
2023-12-21T18:40:31.513Z,2.30
2023-12-21T18:45:24.036Z,0.70
2023-12-21T18:50:17.478Z,4.23
2023-12-21T18:55:09.987Z,2.10
2023-12-21T19:00:02.172Z,1.73
2023-12-21T19:04:55.094Z,1.57
2023-12-21T19:09:47.437Z,3.10
2023-12-21T19:14:41.029Z,3.20
2023-12-21T19:19:33.143Z,4.37
2023-12-21T19:24:25.377Z,2.97
2023-12-21T19:29:18.878Z,4.63
2023-12-21T19:34:11.042Z,3.90
2023-12-21T19:39:05.429Z,8.77
2023-12-21T19:43:57.641Z,2.10
2023-12-21T19:48:49.882Z,3.00
2023-12-21T19:53:43.085Z,3.10
2023-12-21T19:58:35.290Z,3.67
2023-12-21T20:03:27.798Z,1.23
2023-12-21T20:08:21.268Z,4.83
2023-12-21T20:13:13.676Z,5.83
2023-12-21T20:18:06.074Z,2.63
2023-12-21T20:22:58.282Z,5.67
2023-12-21T20:27:52.573Z,7.67
2023-12-21T20:32:48.672Z,4.20
2023-12-21T20:37:41.211Z,8.13
2023-12-21T20:42:33.300Z,4.37
2023-12-21T20:47:25.781Z,8.17
2023-12-21T20:52:17.951Z,9.90
2023-12-21T20:57:13.387Z,15.87
2023-12-21T21:02:05.648Z,5.90
2023-12-21T21:06:57.852Z,11.23
2023-12-21T21:11:50.113Z,8.40
2023-12-21T21:16:43.000Z,9.83
2023-12-21T21:21:35.082Z,9.70
2023-12-21T21:26:27.142Z,10.43
2023-12-21T21:31:19.413Z,8.23
2023-12-21T21:36:11.769Z,12.03
2023-12-21T21:41:03.992Z,12.13
2023-12-21T21:45:56.021Z,7.47
2023-12-21T21:50:48.198Z,11.77
2023-12-21T21:55:40.462Z,11.47
2023-12-21T22:00:32.569Z,7.60
2023-12-21T22:05:24.753Z,15.17
2023-12-21T22:10:16.975Z,10.17
2023-12-21T22:15:09.272Z,10.07
2023-12-21T22:20:01.388Z,8.17
2023-12-21T22:24:53.716Z,6.93
2023-12-21T22:29:45.867Z,4.30
2023-12-21T22:34:37.977Z,12.07
2023-12-21T22:39:31.184Z,9.00
2023-12-21T22:44:25.772Z,11.03
2023-12-21T22:49:17.985Z,10.27
2023-12-21T22:54:10.048Z,6.20
2023-12-21T22:59:02.085Z,15.20
2023-12-21T23:03:54.317Z,10.60
2023-12-21T23:08:46.508Z,10.13
2023-12-21T23:13:38.688Z,12.33
2023-12-21T23:18:30.883Z,6.73
2023-12-21T23:23:23.342Z,10.33
2023-12-21T23:28:15.451Z,6.87
2023-12-21T23:33:07.824Z,13.27
2023-12-21T23:38:00.212Z,10.67
2023-12-21T23:42:52.616Z,10.17
2023-12-21T23:47:44.917Z,8.70
2023-12-21T23:52:37.684Z,11.87
2023-12-21T23:57:29.763Z,12.17
